Time;durP1;ratioP1;P1;durP2;ratioP2;P2;SDS_P1;SDS_P2;PMS_P1;PMS_P2;Temp;Humidity;BMP_temperature;BMP_pressure;BME280_temperature;BME280_humidity;BME280_pressure;Samples;Min_cycle;Max_cycle;Signal;HPM_P1;HPM_P2
2021/12/23 00:02:14;;;;;;;14.80;7.50;;;;;;;-2.77;94.72;101224.27;105242;1316;75138;-77
2021/12/23 00:04:41;;;;;;;16.20;9.00;;;;;;;-2.74;94.60;101215.83;105178;1320;72359;-78
2021/12/23 00:07:07;;;;;;;15.20;7.20;;;;;;;-2.73;94.56;101209.16;105205;1317;74117;-77
2021/12/23 00:12:18;;;;;;;14.50;7.20;;;;;;;-2.68;94.66;101196.98;105205;1317;60006;-77
2021/12/23 00:14:46;;;;;;;11.40;6.30;;;;;;;-2.65;94.62;101192.71;105200;1319;75077;-77
2021/12/23 00:17:25;;;;;;;12.20;6.30;;;;;;;-2.62;94.68;101194.47;105271;1316;70163;-78
2021/12/23 00:25:19;;;;;;;7.10;4.50;;;;;;;-2.63;94.12;101160.39;105249;1320;61678;-78
2021/12/23 00:27:46;;;;;;;12.20;6.90;;;;;;;-2.64;94.21;101160.64;105242;1320;74993;-78
2021/12/23 00:30:12;;;;;;;16.10;8.10;;;;;;;-2.64;94.22;101158.50;105270;1316;71649;-78
2021/12/23 00:32:39;;;;;;;16.10;7.70;;;;;;;-2.63;93.96;101152.59;105252;1313;74024;-78
2021/12/23 00:35:06;;;;;;;14.60;7.60;;;;;;;-2.61;94.11;101154.06;105237;1316;59411;-78
2021/12/23 00:37:40;;;;;;;11.50;6.00;;;;;;;-2.59;94.26;101153.23;104267;1318;60966;-77
2021/12/23 00:40:10;;;;;;;13.30;6.50;;;;;;;-2.59;94.17;101154.09;105243;1316;75010;-77
2021/12/23 00:42:40;;;;;;;9.60;4.80;;;;;;;-2.57;94.34;101145.20;105251;1316;72502;-78
2021/12/23 00:45:08;;;;;;;9.40;4.60;;;;;;;-2.58;94.11;101138.80;105120;1316;74087;-78
2021/12/23 00:47:35;;;;;;;15.40;6.00;;;;;;;-2.59;94.03;101134.73;105186;1315;60416;-77
2021/12/23 00:50:03;;;;;;;16.90;6.60;;;;;;;-2.60;94.06;101129.27;105258;1316;62032;-77
2021/12/23 00:52:34;;;;;;;12.00;5.70;;;;;;;-2.61;94.15;101116.48;104094;1317;74918;-78
2021/12/23 00:55:04;;;;;;;7.60;4.00;;;;;;;-2.62;94.05;101121.55;105109;1318;71966;-78
2021/12/23 00:57:32;;;;;;;15.10;7.60;;;;;;;-2.62;94.12;101121.90;104537;1322;74236;-78
2021/12/23 00:59:59;;;;;;;16.80;8.20;;;;;;;-2.60;94.12;101117.27;105345;1319;61513;-79
2021/12/23 01:02:30;;;;;;;18.20;8.30;;;;;;;-2.58;93.99;101109.92;104152;1325;60628;-78
2021/12/23 01:04:57;;;;;;;17.60;8.60;;;;;;;-2.56;94.13;101104.29;104929;1316;75015;-78
2021/12/23 01:07:24;;;;;;;14.20;7.90;;;;;;;-2.55;94.00;101101.09;104441;1323;72781;-78
2021/12/23 01:09:50;;;;;;;12.80;6.60;;;;;;;-2.53;94.25;101098.73;105244;1316;74172;-78
2021/12/23 01:12:21;;;;;;;10.60;4.90;;;;;;;-2.52;94.10;101081.87;105274;1321;59249;-78
2021/12/23 01:15:09;;;;;;;11.70;6.20;;;;;;;-2.53;94.19;101068.77;105276;1316;61008;-78
2021/12/23 01:18:01;;;;;;;8.60;4.50;;;;;;;-2.56;94.02;101068.23;105281;1317;76046;-78
2021/12/23 01:20:30;;;;;;;8.80;4.80;;;;;;;-2.55;94.10;101061.43;105190;1316;71656;-78
2021/12/23 01:22:59;;;;;;;9.50;5.40;;;;;;;-2.55;94.18;101062.65;105291;1316;72974;-78
2021/12/23 01:25:26;;;;;;;11.30;5.80;;;;;;;-2.54;94.08;101059.66;104967;1316;59737;-78
2021/12/23 01:27:54;;;;;;;18.40;7.00;;;;;;;-2.52;94.06;101057.45;105275;1316;60581;-78
2021/12/23 01:30:21;;;;;;;17.50;7.90;;;;;;;-2.49;93.99;101056.80;105304;1316;74573;-78
2021/12/23 01:32:49;;;;;;;19.80;8.20;;;;;;;-2.46;94.09;101055.58;105273;1316;71713;-78
2021/12/23 01:35:18;;;;;;;12.70;6.50;;;;;;;-2.43;93.98;101053.35;105149;1316;72839;-77
2021/12/23 01:37:44;;;;;;;17.60;8.00;;;;;;;-2.38;94.01;101049.64;105349;1316;62463;-77
2021/12/23 01:40:13;;;;;;;12.30;7.30;;;;;;;-2.33;93.97;101045.05;105319;1316;61555;-77
2021/12/23 01:42:39;;;;;;;15.00;8.10;;;;;;;-2.30;93.83;101035.67;105355;1316;74768;-78
2021/12/23 01:45:11;;;;;;;9.50;5.90;;;;;;;-2.27;93.94;101033.07;104712;1319;71367;-78
2021/12/23 01:47:38;;;;;;;10.90;5.80;;;;;;;-2.26;93.48;101033.91;105292;1316;73277;-78
2021/12/23 01:50:06;;;;;;;15.40;7.50;;;;;;;-2.27;93.41;101029.28;105204;1316;60091;-78
2021/12/23 01:52:33;;;;;;;11.50;4.00;;;;;;;-2.28;93.31;101022.77;104280;1322;60695;-78
2021/12/23 01:54:59;;;;;;;13.70;7.70;;;;;;;-2.29;93.49;101025.93;104991;1316;74948;-78
2021/12/23 01:57:31;;;;;;;17.60;8.50;;;;;;;-2.27;93.47;101034.14;105345;1316;70379;-78
2021/12/23 01:59:59;;;;;;;15.50;8.70;;;;;;;-2.26;93.27;101020.73;105251;1316;72621;-78
2021/12/23 02:02:26;;;;;;;15.60;8.10;;;;;;;-2.25;93.21;101017.55;105380;1316;61531;-78
2021/12/23 02:04:53;;;;;;;16.40;8.40;;;;;;;-2.24;93.13;101020.30;105286;1316;60734;-78
2021/12/23 02:07:20;;;;;;;11.10;5.40;;;;;;;-2.22;93.16;101022.82;105294;1315;76190;-78
2021/12/23 02:09:47;;;;;;;16.20;7.00;;;;;;;-2.22;93.00;101012.39;105191;1316;59126;-78
2021/12/23 02:12:15;;;;;;;12.80;6.30;;;;;;;-2.23;92.96;101000.98;105204;1316;72845;-78
2021/12/23 02:14:42;;;;;;;9.40;5.30;;;;;;;-2.23;92.97;100999.46;105277;1316;59746;-78
2021/12/23 02:17:11;;;;;;;10.80;4.40;;;;;;;-2.24;92.89;100989.63;105292;1318;61594;-78
2021/12/23 02:19:38;;;;;;;10.90;6.30;;;;;;;-2.27;92.75;100991.50;105334;1315;74733;-78
2021/12/23 02:22:05;;;;;;;16.60;8.10;;;;;;;-2.25;92.84;100992.29;105301;1316;70979;-78
2021/12/23 02:24:31;;;;;;;17.70;8.40;;;;;;;-2.24;92.89;100990.33;105008;1319;74018;-78
2021/12/23 02:26:58;;;;;;;13.20;5.80;;;;;;;-2.21;92.73;100987.38;105277;1316;58973;-78
2021/12/23 02:29:24;;;;;;;13.80;8.10;;;;;;;-2.18;92.53;100976.49;104192;1322;61813;-78
2021/12/23 02:31:52;;;;;;;15.20;6.00;;;;;;;-2.16;92.10;100977.73;104196;1323;59081;-79
2021/12/23 02:34:20;;;;;;;16.20;6.90;;;;;;;-2.12;92.09;100979.75;104223;1322;72845;-79
2021/12/23 02:36:56;;;;;;;11.90;5.50;;;;;;;-2.09;92.06;100982.52;105291;1316;71685;-77
2021/12/23 02:39:25;;;;;;;10.40;6.40;;;;;;;-2.06;91.86;100979.41;105285;1319;59953;-78
2021/12/23 02:41:52;;;;;;;8.50;3.00;;;;;;;-2.03;91.61;100981.86;105309;1319;61144;-78
2021/12/23 02:44:19;;;;;;;8.30;3.90;;;;;;;-2.01;91.67;100984.90;104664;1320;74924;-77
2021/12/23 02:46:46;;;;;;;12.20;6.00;;;;;;;-2.00;91.36;100975.63;104912;1315;72454;-78
2021/12/23 02:49:13;;;;;;;10.70;5.90;;;;;;;-1.99;90.98;100975.73;105298;1317;72886;-78
2021/12/23 02:51:40;;;;;;;13.30;6.90;;;;;;;-1.98;90.65;100968.05;105262;1319;61374;-78
2021/12/23 02:54:09;;;;;;;14.90;6.80;;;;;;;-1.95;89.85;100952.46;105227;1316;61468;-78
2021/12/23 02:56:36;;;;;;;13.90;6.40;;;;;;;-1.91;89.92;100945.69;104608;1319;76207;-78
2021/12/23 02:59:03;;;;;;;13.30;6.80;;;;;;;-1.90;90.01;100935.86;105292;1319;58755;-78
2021/12/23 03:01:30;;;;;;;14.70;6.90;;;;;;;-1.87;89.90;100930.16;104176;1316;72852;-78
2021/12/23 03:03:57;;;;;;;10.10;5.70;;;;;;;-1.84;89.68;100927.03;105321;1316;59806;-78
2021/12/23 03:06:25;;;;;;;10.60;5.50;;;;;;;-1.84;89.10;100915.93;105302;1316;61764;-78
2021/12/23 03:08:56;;;;;;;16.40;6.80;;;;;;;-1.83;89.32;100903.41;104363;1319;75561;-78
2021/12/23 03:11:25;;;;;;;7.70;5.00;;;;;;;-1.82;89.42;100901.08;105023;1313;71617;-78
2021/12/23 03:13:53;;;;;;;9.80;5.30;;;;;;;-1.81;89.50;100897.41;104817;1315;73911;-78
2021/12/23 03:16:23;;;;;;;7.40;4.70;;;;;;;-1.84;89.21;100893.77;104354;1319;59905;-78
2021/12/23 03:18:50;;;;;;;12.90;5.80;;;;;;;-1.84;89.49;100883.69;105306;1320;60578;-78
2021/12/23 03:21:17;;;;;;;16.30;7.30;;;;;;;-1.84;89.43;100884.75;105181;1319;74717;-78
2021/12/23 03:23:44;;;;;;;10.40;5.80;;;;;;;-1.85;89.58;100882.01;105359;1316;71584;-78
2021/12/23 03:26:10;;;;;;;20.70;8.40;;;;;;;-1.85;89.70;100886.00;105112;1319;73913;-77
2021/12/23 03:28:37;;;;;;;12.10;6.80;;;;;;;-1.82;89.60;100893.16;104362;1318;61471;-77
2021/12/23 03:31:05;;;;;;;12.90;6.20;;;;;;;-1.81;89.58;100890.12;105331;1316;60326;-78
2021/12/23 03:33:34;;;;;;;11.70;6.20;;;;;;;-1.81;89.54;100884.38;105026;1317;74479;-78
2021/12/23 03:36:03;;;;;;;17.70;7.20;;;;;;;-1.79;89.63;100878.58;105241;1319;71964;-78
2021/12/23 03:38:30;;;;;;;16.00;6.70;;;;;;;-1.78;89.69;100875.20;105194;1319;74306;-78
2021/12/23 03:40:57;;;;;;;15.30;7.40;;;;;;;-1.77;89.84;100860.23;105257;1317;61117;-78
2021/12/23 03:43:23;;;;;;;11.20;5.30;;;;;;;-1.77;89.91;100862.29;105333;1316;60285;-78
2021/12/23 03:45:51;;;;;;;9.60;6.10;;;;;;;-1.76;89.94;100860.37;105229;1316;76511;-78
2021/12/23 03:48:18;;;;;;;10.60;5.80;;;;;;;-1.76;90.05;100864.36;104685;1322;71359;-78
2021/12/23 03:50:46;;;;;;;12.20;6.80;;;;;;;-1.77;90.01;100856.95;105286;1317;73367;-78
2021/12/23 03:53:13;;;;;;;11.60;6.80;;;;;;;-1.78;90.09;100858.93;105318;1320;59771;-78
2021/12/23 03:55:40;;;;;;;10.20;4.70;;;;;;;-1.81;90.20;100849.38;105146;1322;61921;-78
2021/12/23 03:58:07;;;;;;;12.30;6.90;;;;;;;-1.83;90.27;100849.17;104287;1323;75016;-78
2021/12/23 04:00:34;;;;;;;13.20;6.90;;;;;;;-1.84;90.57;100836.41;104859;1317;71356;-77
2021/12/23 04:03:01;;;;;;;11.40;6.40;;;;;;;-1.85;90.54;100819.96;105174;1316;72926;-78
2021/12/23 04:05:28;;;;;;;14.80;7.70;;;;;;;-1.82;90.41;100822.57;105239;1317;60154;-78
2021/12/23 04:07:55;;;;;;;12.60;6.70;;;;;;;-1.80;90.36;100814.80;104024;1317;61965;-78
2021/12/23 04:10:21;;;;;;;11.40;6.60;;;;;;;-1.79;90.13;100813.36;105252;1316;74938;-78
2021/12/23 04:12:49;;;;;;;13.60;7.80;;;;;;;-1.76;89.74;100817.55;105283;1315;71442;-78
2021/12/23 04:15:16;;;;;;;15.10;8.00;;;;;;;-1.72;89.38;100816.60;104714;1316;74039;-78
2021/12/23 04:17:44;;;;;;;12.60;7.70;;;;;;;-1.69;89.24;100813.60;105218;1319;59796;-79
2021/12/23 04:20:54;;;;;;;7.60;4.60;;;;;;;-1.67;88.78;100796.52;105361;1315;61779;-78
2021/12/23 04:23:03;;;;;;;13.20;7.30;;;;;;;-1.63;88.74;100783.30;105230;1320;76198;-78
2021/12/23 04:25:30;;;;;;;14.00;6.60;;;;;;;-1.62;87.74;100776.14;104657;1316;72275;-78
2021/12/23 04:28:01;;;;;;;12.20;6.10;;;;;;;-1.59;87.33;100776.96;105330;1316;73296;-79
2021/12/23 04:30:28;;;;;;;14.40;8.00;;;;;;;-1.57;87.17;100784.09;105328;1316;61710;-78
2021/12/23 04:32:56;;;;;;;9.30;5.20;;;;;;;-1.53;87.06;100783.19;105363;1315;61264;-78
2021/12/23 04:35:22;;;;;;;13.10;7.20;;;;;;;-1.49;86.46;100793.52;105390;1316;74874;-79
2021/12/23 04:37:49;;;;;;;11.40;5.70;;;;;;;-1.45;85.76;100775.55;105360;1321;71596;-78
2021/12/23 04:40:16;;;;;;;11.00;5.70;;;;;;;-1.42;86.01;100773.45;105347;1316;71858;-78
2021/12/23 04:42:44;;;;;;;12.40;7.30;;;;;;;-1.39;86.29;100770.52;104562;1319;59967;-78
2021/12/23 04:45:10;;;;;;;15.20;7.80;;;;;;;-1.39;85.97;100771.72;104901;1316;61987;-79
2021/12/23 04:47:37;;;;;;;12.10;5.00;;;;;;;-1.37;85.60;100775.77;105318;1316;76115;-79
2021/12/23 04:50:07;;;;;;;18.80;7.60;;;;;;;-1.36;84.96;100784.02;105186;1319;71154;-79
2021/12/23 04:52:34;;;;;;;16.90;8.70;;;;;;;-1.34;84.18;100783.71;104696;1316;72949;-79
2021/12/23 04:55:01;;;;;;;13.30;8.10;;;;;;;-1.32;83.63;100778.21;105230;1317;62493;-79
2021/12/23 04:57:28;;;;;;;18.70;7.80;;;;;;;-1.29;83.41;100778.73;104629;1319;61675;-79
2021/12/23 04:59:57;;;;;;;14.90;7.10;;;;;;;-1.28;83.00;100779.04;105250;1317;59229;-79
2021/12/23 05:02:24;;;;;;;16.10;9.20;;;;;;;-1.27;83.43;100775.11;105263;1306;72714;-77
2021/12/23 05:04:51;;;;;;;10.20;4.80;;;;;;;-1.27;83.25;100764.52;104838;1306;72830;-77
2021/12/23 05:07:19;;;;;;;16.30;8.30;;;;;;;-1.26;82.88;100762.60;105392;1303;60114;-79
2021/12/23 05:09:45;;;;;;;18.70;9.50;;;;;;;-1.24;83.22;100761.91;105433;1315;59568;-79
2021/12/23 05:12:12;;;;;;;10.30;5.50;;;;;;;-1.23;83.30;100759.79;105456;1313;74931;-79
2021/12/23 05:14:39;;;;;;;18.80;8.60;;;;;;;-1.23;83.25;100755.63;105263;1315;72496;-79
2021/12/23 05:17:05;;;;;;;16.10;9.10;;;;;;;-1.21;83.63;100749.30;105442;1320;72900;-78
2021/12/23 05:19:32;;;;;;;16.20;8.80;;;;;;;-1.21;83.69;100741.63;105418;1316;59091;-78
2021/12/23 05:21:58;;;;;;;14.70;7.10;;;;;;;-1.21;83.54;100733.99;105456;1316;59371;-78
2021/12/23 05:24:25;;;;;;;16.50;9.20;;;;;;;-1.19;83.35;100732.52;105324;1316;59144;-78
2021/12/23 05:26:52;;;;;;;20.00;9.30;;;;;;;-1.18;83.36;100737.63;105409;1315;71418;-78
2021/12/23 05:29:18;;;;;;;12.10;6.20;;;;;;;-1.17;83.36;100736.69;105425;1316;72923;-79
2021/12/23 05:31:47;;;;;;;17.20;9.30;;;;;;;-1.15;83.46;100732.40;105418;1313;61513;-79
2021/12/23 05:34:14;;;;;;;19.70;8.20;;;;;;;-1.15;83.58;100732.23;104906;1317;60325;-78
2021/12/23 05:36:41;;;;;;;14.40;7.50;;;;;;;-1.16;83.81;100726.52;104560;1315;75846;-78
2021/12/23 05:39:09;;;;;;;10.80;6.10;;;;;;;-1.16;83.88;100721.68;105390;1316;72444;-79
2021/12/23 05:41:36;;;;;;;16.70;9.10;;;;;;;-1.16;83.95;100714.08;104421;1322;73910;-78
2021/12/23 05:44:03;;;;;;;17.70;7.80;;;;;;;-1.15;84.19;100708.29;105211;1303;61235;-77
2021/12/23 05:46:30;;;;;;;16.70;9.00;;;;;;;-1.16;84.28;100699.52;105145;1304;62888;-77
2021/12/23 05:48:56;;;;;;;12.60;7.10;;;;;;;-1.16;83.93;100691.55;104871;1303;76233;-77
2021/12/23 05:51:23;;;;;;;15.40;8.60;;;;;;;-1.16;84.02;100688.58;105158;1304;72491;-77
2021/12/23 05:53:49;;;;;;;16.70;8.70;;;;;;;-1.17;83.97;100688.98;105473;1313;73937;-78
2021/12/23 05:56:16;;;;;;;16.10;8.60;;;;;;;-1.18;84.08;100685.38;105405;1320;60960;-78
2021/12/23 05:58:43;;;;;;;20.60;10.00;;;;;;;-1.19;84.16;100688.38;104694;1319;60616;-78
2021/12/23 06:01:09;;;;;;;19.40;8.90;;;;;;;-1.19;83.98;100693.95;105350;1317;59360;-78
2021/12/23 06:03:36;;;;;;;18.90;9.00;;;;;;;-1.19;84.10;100692.23;105438;1320;72303;-78
2021/12/23 06:06:03;;;;;;;15.60;9.40;;;;;;;-1.19;83.95;100687.00;105330;1315;59008;-78
2021/12/23 06:08:29;;;;;;;11.30;4.50;;;;;;;-1.17;84.21;100670.92;105229;1318;62460;-78
2021/12/23 06:10:56;;;;;;;21.90;8.90;;;;;;;-1.16;83.94;100659.08;105219;1303;59166;-78
2021/12/23 06:13:22;;;;;;;11.20;5.60;;;;;;;-1.14;83.91;100646.98;104685;1303;74910;-77
2021/12/23 06:15:49;;;;;;;9.70;4.50;;;;;;;-1.13;84.12;100634.71;105412;1316;59066;-77
2021/12/23 06:18:15;;;;;;;8.50;4.80;;;;;;;-1.11;84.30;100617.61;104346;1322;72967;-78
2021/12/23 06:20:42;;;;;;;12.00;6.40;;;;;;;-1.09;83.96;100602.37;105410;1316;60045;-78
2021/12/23 06:23:08;;;;;;;11.30;5.80;;;;;;;-1.06;83.98;100587.77;105220;1320;58996;-78
2021/12/23 06:25:35;;;;;;;13.80;6.40;;;;;;;-1.05;84.65;100568.40;105410;1315;59779;-78
2021/12/23 06:28:02;;;;;;;10.80;6.00;;;;;;;-1.06;85.36;100540.55;104468;1322;71625;-78
2021/12/23 06:30:28;;;;;;;14.00;7.20;;;;;;;-1.08;85.91;100521.41;105356;1316;73970;-78
2021/12/23 06:32:56;;;;;;;11.30;5.30;;;;;;;-1.10;86.47;100508.36;105259;1318;63121;-78
2021/12/23 06:35:26;;;;;;;14.00;6.30;;;;;;;-1.12;86.40;100518.08;105308;1316;60682;-78
2021/12/23 06:37:53;;;;;;;15.40;8.20;;;;;;;-1.14;86.29;100537.83;104919;1317;495377;-81
2021/12/23 06:40:20;;;;;;;11.40;6.60;;;;;;;-1.17;86.28;100547.70;105289;1318;72706;-79
2021/12/23 06:42:48;;;;;;;14.80;7.10;;;;;;;-1.17;86.12;100562.67;105299;1322;72889;-79
2021/12/23 06:45:16;;;;;;;16.50;8.20;;;;;;;-1.17;86.05;100562.97;105332;1316;59809;-78
2021/12/23 06:47:44;;;;;;;11.70;6.50;;;;;;;-1.15;85.93;100571.34;105346;1316;59633;-80
2021/12/23 06:50:11;;;;;;;16.90;8.50;;;;;;;-1.13;85.76;100571.39;105325;1320;76798;-79
2021/12/23 06:52:38;;;;;;;11.90;6.20;;;;;;;-1.11;85.71;100576.14;104293;1316;72448;-79
2021/12/23 06:55:11;;;;;;;12.20;6.20;;;;;;;-1.10;85.47;100575.86;105317;1318;72915;-78
2021/12/23 06:57:39;;;;;;;16.30;8.70;;;;;;;-1.07;85.28;100582.46;105199;1318;61513;-78
2021/12/23 07:00:08;;;;;;;19.80;9.00;;;;;;;-1.06;85.34;100581.69;105360;1318;60770;-79
2021/12/23 07:02:38;;;;;;;16.60;8.80;;;;;;;-1.06;85.21;100575.79;105356;1316;75032;-79
2021/12/23 07:05:07;;;;;;;19.30;9.30;;;;;;;-1.05;85.19;100575.02;105204;1316;72843;-79
2021/12/23 07:07:51;;;;;;;18.80;8.60;;;;;;;-1.06;84.75;100595.52;105170;1316;73957;-80
2021/12/23 07:10:24;;;;;;;13.70;7.90;;;;;;;-1.05;84.40;100597.89;104167;1319;60787;-79
2021/12/23 07:12:51;;;;;;;12.60;6.60;;;;;;;-1.05;84.15;100583.34;105249;1322;61575;-81
2021/12/23 07:15:18;;;;;;;16.60;7.60;;;;;;;-1.03;84.29;100566.36;105071;1319;76095;-80
2021/12/23 07:17:44;;;;;;;19.80;9.20;;;;;;;-0.99;84.27;100574.29;105337;1316;71439;-79
2021/12/23 07:20:11;;;;;;;15.70;9.00;;;;;;;-0.97;84.04;100570.02;105343;1317;74066;-80
2021/12/23 07:22:38;;;;;;;11.80;6.90;;;;;;;-0.98;83.53;100573.98;105012;1316;59818;-79
2021/12/23 07:25:07;;;;;;;15.20;8.50;;;;;;;-0.95;83.52;100567.42;105313;1316;60547;-79
2021/12/23 07:27:33;;;;;;;16.70;8.70;;;;;;;-0.94;82.57;100558.33;104350;1319;74995;-80
2021/12/23 07:30:00;;;;;;;17.00;9.80;;;;;;;-0.91;82.19;100548.20;105128;1322;72575;-79
2021/12/23 07:32:27;;;;;;;15.10;8.90;;;;;;;-0.88;82.61;100539.33;105334;1317;72862;-79
2021/12/23 07:34:53;;;;;;;18.50;9.90;;;;;;;-0.86;82.47;100528.73;105282;1316;58707;-79
2021/12/23 07:37:20;;;;;;;18.60;9.30;;;;;;;-0.81;82.50;100536.44;105314;1317;61893;-80
2021/12/23 07:39:48;;;;;;;14.00;7.90;;;;;;;-0.79;81.45;100536.29;105338;1320;75073;-77
2021/12/23 07:42:30;;;;;;;17.00;10.10;;;;;;;-0.77;80.72;100523.45;105370;1316;71099;-79
2021/12/23 07:47:26;;;;;;;16.70;9.80;;;;;;;-0.72;80.94;100513.76;104918;1303;60071;-81
2021/12/23 07:49:53;;;;;;;17.50;9.50;;;;;;;-0.70;80.92;100497.98;105413;1316;60412;-79
2021/12/23 08:00:35;;;;;;;12.90;6.40;;;;;;;-0.60;80.36;100510.09;105569;1309;59893;-78
2021/12/23 08:03:02;;;;;;;11.60;7.70;;;;;;;-0.58;80.23;100498.35;104892;1321;60263;-79
2021/12/23 08:05:30;;;;;;;16.40;8.00;;;;;;;-0.57;80.08;100486.79;104892;1322;75179;-80
2021/12/23 08:07:57;;;;;;;18.70;10.20;;;;;;;-0.52;79.67;100498.83;103734;1320;72854;-80
2021/12/23 08:10:24;;;;;;;13.80;8.30;;;;;;;-0.49;79.43;100503.95;103634;1328;72958;-80
2021/12/23 08:12:51;;;;;;;19.50;9.20;;;;;;;-0.47;79.80;100493.90;104651;1328;59827;-80
2021/12/23 08:15:17;;;;;;;13.40;7.80;;;;;;;-0.46;79.63;100484.84;104909;1322;60592;-80
2021/12/23 08:17:44;;;;;;;17.50;7.80;;;;;;;-0.45;79.45;100479.14;104461;1322;74158;-79
2021/12/23 08:20:13;;;;;;;15.80;8.40;;;;;;;-0.43;79.56;100472.98;104203;1328;70571;-81
2021/12/23 08:22:40;;;;;;;21.00;10.50;;;;;;;-0.40;79.65;100475.89;104432;1323;72994;-79
2021/12/23 08:25:08;;;;;;;11.80;6.90;;;;;;;-0.37;79.52;100515.80;104903;1322;62165;-80
2021/12/23 08:27:38;;;;;;;15.90;8.60;;;;;;;-0.33;79.37;100490.36;104259;1322;60432;-79
2021/12/23 08:30:07;;;;;;;16.80;9.30;;;;;;;-0.31;79.33;100519.04;104883;1323;75889;-80
2021/12/23 08:32:34;;;;;;;18.80;10.90;;;;;;;-0.31;79.44;100514.67;104257;1328;72508;-80
2021/12/23 08:35:01;;;;;;;10.90;6.10;;;;;;;-0.30;79.02;100491.31;104861;1323;74254;-80
2021/12/23 08:37:28;;;;;;;17.90;10.80;;;;;;;-0.30;79.02;100485.13;104837;1322;62841;-79
2021/12/23 08:39:55;;;;;;;14.20;8.60;;;;;;;-0.29;79.47;100513.47;104192;1322;61638;-79
2021/12/23 08:42:22;;;;;;;20.00;10.40;;;;;;;-0.29;79.44;100523.59;104883;1325;75863;-78
2021/12/23 08:44:48;;;;;;;18.80;10.90;;;;;;;-0.29;79.46;100522.74;104771;1322;70378;-77
2021/12/23 08:47:16;;;;;;;22.10;11.80;;;;;;;-0.28;79.70;100520.87;104867;1321;72908;-77
2021/12/23 08:49:44;;;;;;;19.70;11.20;;;;;;;-0.25;79.88;100520.70;104787;1322;59291;-77
2021/12/23 08:52:12;;;;;;;20.30;10.50;;;;;;;-0.23;79.72;100506.13;104862;1322;61669;-77
2021/12/23 08:54:41;;;;;;;19.70;10.50;;;;;;;-0.23;79.29;100506.66;104837;1325;76012;-77
2021/12/23 08:57:08;;;;;;;18.20;11.30;;;;;;;-0.21;79.30;100496.21;104359;1320;72417;-77
2021/12/23 08:59:35;;;;;;;19.10;11.00;;;;;;;-0.20;79.42;100495.66;103977;1328;73978;-79
2021/12/23 09:02:03;;;;;;;19.70;10.70;;;;;;;-0.21;79.52;100477.12;104955;1321;59862;-79
2021/12/23 09:04:32;;;;;;;20.10;10.60;;;;;;;-0.23;79.74;100464.77;104586;1325;61854;-79
2021/12/23 09:06:58;;;;;;;17.40;10.10;;;;;;;-0.27;79.61;100457.73;104606;1322;75070;-80
2021/12/23 09:09:25;;;;;;;23.50;12.10;;;;;;;-0.26;79.89;100456.43;104647;1326;71830;-81
2021/12/23 09:11:52;;;;;;;21.30;12.20;;;;;;;-0.23;80.17;100442.34;103924;1328;73120;-79
2021/12/23 09:14:19;;;;;;;17.20;8.30;;;;;;;-0.22;79.82;100430.80;104515;1322;59222;-80
2021/12/23 09:16:45;;;;;;;21.20;12.00;;;;;;;-0.22;80.16;100440.52;104826;1321;59291;-79
2021/12/23 09:19:14;;;;;;;13.50;8.50;;;;;;;-0.24;79.65;100453.71;104866;1321;76133;-80
2021/12/23 09:21:41;;;;;;;17.50;9.50;;;;;;;-0.26;79.97;100447.40;104883;1321;72163;-80
2021/12/23 09:24:07;;;;;;;14.20;7.60;;;;;;;-0.26;80.05;100411.27;104823;1323;71827;-80
2021/12/23 09:26:44;;;;;;;18.10;10.00;;;;;;;-0.29;79.95;100421.55;104875;1321;62574;-77
2021/12/23 09:32:38;;;;;;;8.20;4.60;;;;;;;-0.29;80.18;100418.27;104842;1325;61627;-77
2021/12/23 09:34:42;;;;;;;21.90;11.60;;;;;;;-0.27;80.83;100412.23;104650;1321;71553;-80
2021/12/23 09:37:09;;;;;;;18.50;10.60;;;;;;;-0.26;81.09;100410.23;104854;1321;74657;-80
2021/12/23 09:39:36;;;;;;;22.10;10.50;;;;;;;-0.25;80.97;100403.59;104599;1325;60915;-77
2021/12/23 09:42:04;;;;;;;19.70;11.60;;;;;;;-0.27;80.62;100411.85;104936;1326;59145;-77
2021/12/23 09:44:31;;;;;;;19.40;9.40;;;;;;;-0.25;80.83;100429.09;104596;1328;76330;-80
2021/12/23 09:47:02;;;;;;;22.70;12.20;;;;;;;-0.23;81.35;100405.50;104895;1321;71396;-78
2021/12/23 09:49:30;;;;;;;9.00;5.30;;;;;;;-0.21;81.06;100387.31;104717;1322;74128;-80
2021/12/23 09:51:57;;;;;;;16.80;9.00;;;;;;;-0.21;81.08;100392.31;104889;1324;60113;-78
2021/12/23 09:54:25;;;;;;;20.60;11.30;;;;;;;-0.22;81.13;100391.65;104498;1328;60708;-80
2021/12/23 09:56:52;;;;;;;20.60;12.10;;;;;;;-0.24;80.86;100422.05;104709;1326;76221;-77
2021/12/23 09:59:26;;;;;;;17.40;11.00;;;;;;;-0.23;80.90;100379.61;104882;1325;72412;-80
2021/12/23 10:01:56;;;;;;;25.20;12.00;;;;;;;-0.24;80.81;100417.73;104570;1320;73142;-79
2021/12/23 10:04:23;;;;;;;14.30;7.80;;;;;;;-0.25;81.04;100414.50;104858;1322;62448;-80
2021/12/23 10:06:51;;;;;;;21.90;12.10;;;;;;;-0.26;81.23;100413.90;104679;1328;60639;-80
2021/12/23 10:09:37;;;;;;;21.20;10.90;;;;;;;-0.27;81.26;100400.23;104213;1322;74130;-77
2021/12/23 10:31:32;;;;;;;22.00;12.70;;;;;;;-0.16;80.97;100373.73;104913;1322;61526;-80
2021/12/23 10:37:21;;;;;;;20.80;11.20;;;;;;;-0.12;80.86;100376.00;104864;1323;74903;-77
2021/12/23 10:39:49;;;;;;;21.60;11.40;;;;;;;-0.11;80.94;100368.66;104845;1322;72489;-79
2021/12/23 10:42:25;;;;;;;19.20;9.80;;;;;;;-0.09;81.04;100362.73;104848;1321;72542;-78
2021/12/23 10:44:55;;;;;;;24.70;12.40;;;;;;;-0.06;80.92;100351.93;104820;1320;62631;-78
2021/12/23 10:50:46;;;;;;;24.20;11.30;;;;;;;-0.01;80.99;100333.11;103987;1328;74965;-82
2021/12/23 10:53:45;;;;;;;20.00;10.30;;;;;;;0.01;81.06;100325.54;104640;1328;71456;-81
2021/12/23 10:59:21;;;;;;;24.30;13.40;;;;;;;0.02;81.03;100315.35;104818;1328;62827;-81
2021/12/23 11:02:17;;;;;;;21.80;11.70;;;;;;;0.04;81.26;100311.54;104354;1329;60767;-79
2021/12/23 11:07:48;;;;;;;22.30;12.60;;;;;;;0.06;81.09;100301.30;104648;1328;72402;-78
2021/12/23 11:10:24;;;;;;;25.40;13.10;;;;;;;0.09;81.16;100301.11;104748;1322;72869;-77
2021/12/23 11:30:52;;;;;;;23.40;11.10;;;;;;;0.26;80.18;100268.16;104873;1323;60612;-79
2021/12/23 11:44:06;;;;;;;26.30;10.80;;;;;;;0.29;80.25;100251.94;103523;1334;61607;-77
2021/12/23 11:46:48;;;;;;;19.60;11.60;;;;;;;0.29;80.46;100248.21;103622;1329;74924;-76
2021/12/23 11:49:16;;;;;;;10.10;5.10;;;;;;;0.32;80.76;100239.84;104913;1326;72414;-81
2021/12/23 11:54:30;;;;;;;13.60;8.20;;;;;;;0.39;81.01;100227.61;104868;1321;60676;-80
2021/12/23 11:57:15;;;;;;;15.80;8.10;;;;;;;0.43;80.85;100227.33;104848;1327;60567;-80
2021/12/23 11:59:46;;;;;;;19.90;9.70;;;;;;;0.44;80.75;100220.30;104890;1325;76222;-80
2021/12/23 12:02:21;;;;;;;23.60;11.00;;;;;;;0.46;80.92;100215.07;104869;1322;71430;-81
2021/12/23 12:04:57;;;;;;;22.00;9.50;;;;;;;0.48;80.82;100215.28;104852;1327;73782;-78
2021/12/23 12:07:25;;;;;;;31.30;16.50;;;;;;;0.49;80.64;100211.36;104838;1321;59624;-78
2021/12/23 12:10:07;;;;;;;25.70;13.90;;;;;;;0.51;80.63;100202.02;103621;1331;60633;-78
2021/12/23 12:12:54;;;;;;;25.30;12.50;;;;;;;0.52;80.61;100198.42;104860;1326;74924;-78
2021/12/23 12:15:47;;;;;;;24.50;11.10;;;;;;;0.55;80.36;100192.80;103980;1322;72445;-78
2021/12/23 12:18:19;;;;;;;25.00;13.10;;;;;;;0.57;79.88;100189.88;104801;1323;73056;-78
2021/12/23 12:20:54;;;;;;;18.70;9.90;;;;;;;0.56;79.89;100183.83;104894;1322;59753;-82
2021/12/23 12:23:36;;;;;;;22.70;11.80;;;;;;;0.57;79.62;100181.53;104857;1317;60969;-81
2021/12/23 12:26:10;;;;;;;25.10;13.90;;;;;;;0.55;79.26;100174.33;104814;1322;75115;-78
2021/12/23 12:28:37;;;;;;;21.50;11.30;;;;;;;0.55;79.10;100162.88;104839;1322;71446;-77
2021/12/23 12:31:13;;;;;;;20.30;11.30;;;;;;;0.56;79.03;100155.16;104888;1325;73056;-79
2021/12/23 12:33:52;;;;;;;21.70;11.10;;;;;;;0.60;79.20;100144.70;104868;1326;60585;-78
2021/12/23 12:36:19;;;;;;;21.00;10.20;;;;;;;0.65;78.93;100129.05;103998;1332;61447;-82
2021/12/23 12:38:50;;;;;;;16.40;9.10;;;;;;;0.68;78.87;100115.55;104565;1328;75921;-81
2021/12/23 12:41:25;;;;;;;17.20;9.40;;;;;;;0.70;78.23;100118.36;104628;1321;71792;-78
2021/12/23 12:44:01;;;;;;;20.40;11.70;;;;;;;0.71;77.98;100114.23;104703;1322;73932;-79